Time;durP1;ratioP1;P1;durP2;ratioP2;P2;SDS_P1;SDS_P2;PMS_P1;PMS_P2;Temp;Humidity;BMP_temperature;BMP_pressure;BME280_temperature;BME280_humidity;BME280_pressure;Samples;Min_cycle;Max_cycle;Signal;HPM_P1;HPM_P2
2023/04/03 00:01:06;;;;;;;16.17;7.18;;;;;;;3.74;79.03;102427.22;5089505;28;20067;-52
2023/04/03 00:03:33;;;;;;;19.10;7.50;;;;;;;3.72;79.85;102420.34;5083607;28;20130;-52
2023/04/03 00:06:00;;;;;;;14.93;7.22;;;;;;;3.72;80.28;102421.19;5093222;28;20040;-52
2023/04/03 00:08:27;;;;;;;16.38;7.65;;;;;;;3.71;79.88;102422.13;5104673;28;20044;-52
2023/04/03 00:10:54;;;;;;;16.42;7.40;;;;;;;3.76;79.73;102416.66;5093604;28;20066;-53
2023/04/03 00:13:20;;;;;;;14.90;7.38;;;;;;;3.73;80.10;102417.66;5085174;28;20040;-52
2023/04/03 00:15:47;;;;;;;15.80;7.60;;;;;;;3.67;80.37;102417.91;5090697;28;20044;-53
2023/04/03 00:18:14;;;;;;;15.88;7.53;;;;;;;3.64;80.95;102421.53;5088664;28;20123;-52
2023/04/03 00:20:41;;;;;;;14.60;7.75;;;;;;;3.69;80.95;102415.22;5093675;28;20494;-52
2023/04/03 00:23:08;;;;;;;16.67;8.23;;;;;;;3.63;80.50;102411.94;5089071;28;20267;-53
2023/04/03 00:25:35;;;;;;;17.95;7.72;;;;;;;3.67;79.98;102411.81;5091911;28;20035;-51
2023/04/03 00:28:02;;;;;;;15.35;7.70;;;;;;;3.65;80.22;102417.13;5089153;28;20036;-50
2023/04/03 00:30:31;;;;;;;14.38;7.95;;;;;;;3.68;79.96;102416.16;5089353;28;20083;-48
2023/04/03 00:32:58;;;;;;;14.40;7.82;;;;;;;3.60;79.92;102416.47;5091132;28;20056;-48
2023/04/03 00:35:24;;;;;;;23.58;8.40;;;;;;;3.58;80.66;102415.69;5088454;28;20044;-47
2023/04/03 00:37:53;;;;;;;17.83;8.38;;;;;;;3.57;80.47;102411.38;5092704;28;20048;-51
2023/04/03 00:40:21;;;;;;;20.35;8.60;;;;;;;3.51;81.10;102417.75;5086919;28;20036;-52
2023/04/03 00:42:50;;;;;;;21.33;8.43;;;;;;;3.50;81.17;102412.56;5123441;27;20116;-49
2023/04/03 00:47:56;;;;;;;20.45;8.68;;;;;;;3.45;80.71;102408.34;5122181;27;20413;-51
2023/04/03 00:50:23;;;;;;;19.85;8.40;;;;;;;3.46;80.40;102409.22;5107925;28;20492;-53
2023/04/03 00:52:50;;;;;;;18.90;8.32;;;;;;;3.50;79.71;102400.31;5103529;28;20040;-50
2023/04/03 00:55:17;;;;;;;17.55;8.68;;;;;;;3.56;80.64;102415.75;5106960;28;20047;-53
2023/04/03 00:57:45;;;;;;;18.48;9.48;;;;;;;3.53;80.01;102410.66;5101780;28;20040;-51
2023/04/03 01:00:17;;;;;;;20.17;8.82;;;;;;;3.51;79.52;102414.25;5107471;28;20078;-49
2023/04/03 01:02:43;;;;;;;22.27;9.85;;;;;;;3.50;79.93;102413.41;5099596;28;20512;-53
2023/04/03 01:05:15;;;;;;;18.05;8.88;;;;;;;3.52;80.09;102410.72;5107242;28;20078;-51
2023/04/03 01:07:44;;;;;;;20.70;9.10;;;;;;;3.49;80.10;102416.09;5107297;28;20039;-52
2023/04/03 01:10:15;;;;;;;17.88;8.90;;;;;;;3.48;79.41;102411.78;5103847;28;20052;-48
2023/04/03 01:12:45;;;;;;;16.10;7.82;;;;;;;3.40;79.51;102410.34;5107599;28;20044;-48
2023/04/03 01:15:18;;;;;;;21.48;8.93;;;;;;;3.43;79.92;102417.22;5103824;28;20440;-47
2023/04/03 01:17:49;;;;;;;15.80;8.13;;;;;;;3.45;79.37;102416.22;5106825;28;20044;-49
2023/04/03 01:23:26;;;;;;;18.75;7.75;;;;;;;3.42;79.10;102415.50;5111392;27;20388;-49
2023/04/03 01:25:56;;;;;;;20.35;8.52;;;;;;;3.40;79.76;102420.84;5102722;28;20511;-50
2023/04/03 01:28:30;;;;;;;19.80;7.82;;;;;;;3.43;79.33;102419.84;5109240;28;20036;-52
2023/04/03 01:31:15;;;;;;;18.02;8.23;;;;;;;3.41;79.58;102422.53;5105003;28;20047;-53
2023/04/03 01:33:44;;;;;;;19.77;8.70;;;;;;;3.38;79.69;102422.66;5109743;28;20050;-51
2023/04/03 01:36:21;;;;;;;18.20;8.07;;;;;;;3.39;78.71;102423.53;5102446;28;20044;-49
2023/04/03 01:38:48;;;;;;;17.63;7.88;;;;;;;3.36;78.44;102416.63;5109692;28;20427;-50
2023/04/03 01:41:16;;;;;;;18.58;7.93;;;;;;;3.40;78.52;102415.59;5104617;28;20268;-52
2023/04/03 01:43:44;;;;;;;21.63;7.68;;;;;;;3.36;78.94;102414.00;5109169;28;20032;-50
2023/04/03 01:46:11;;;;;;;15.43;7.35;;;;;;;3.34;78.32;102417.63;5103470;28;20692;-51
2023/04/03 01:48:38;;;;;;;17.92;7.35;;;;;;;3.36;77.57;102428.91;5109453;28;20126;-52
2023/04/03 01:51:05;;;;;;;14.95;6.95;;;;;;;3.43;77.48;102420.69;5104959;28;20058;-53
2023/04/03 01:53:32;;;;;;;15.93;6.85;;;;;;;3.43;76.00;102420.69;5104750;28;20071;-51
2023/04/03 01:55:58;;;;;;;17.05;6.97;;;;;;;3.50;76.21;102428.31;5108905;28;20067;-52
2023/04/03 01:58:25;;;;;;;24.35;7.75;;;;;;;3.53;76.82;102425.53;5104154;28;20050;-49
2023/04/03 02:00:54;;;;;;;19.70;7.32;;;;;;;3.54;76.09;102422.84;5108947;28;20070;-50
2023/04/03 02:03:20;;;;;;;16.95;7.15;;;;;;;3.44;74.93;102430.28;5103277;28;20366;-51
2023/04/03 02:05:47;;;;;;;21.50;7.22;;;;;;;3.49;75.11;102434.47;5109107;28;20089;-51
2023/04/03 02:08:17;;;;;;;17.42;7.13;;;;;;;3.39;74.24;102432.25;5103920;28;20063;-51
2023/04/03 02:10:48;;;;;;;19.67;7.22;;;;;;;3.43;75.10;102427.72;5105881;28;20043;-51
2023/04/03 02:13:15;;;;;;;17.33;7.00;;;;;;;3.52;74.84;102427.31;5109061;28;20047;-49
2023/04/03 02:15:42;;;;;;;18.92;7.45;;;;;;;3.55;74.40;102427.19;5104197;28;20449;-52
2023/04/03 02:18:09;;;;;;;20.52;7.53;;;;;;;3.45;74.25;102426.72;5108916;28;20058;-49
2023/04/03 02:20:36;;;;;;;21.95;7.22;;;;;;;3.53;74.52;102431.66;5104265;28;20071;-51
2023/04/03 02:23:05;;;;;;;18.17;7.40;;;;;;;3.56;74.98;102434.13;5107107;28;20139;-52
2023/04/03 02:25:32;;;;;;;18.48;7.75;;;;;;;3.55;74.59;102428.97;5100816;28;20139;-51
2023/04/03 02:27:59;;;;;;;23.63;8.05;;;;;;;3.59;74.14;102436.63;5106968;28;20036;-55
2023/04/03 02:30:26;;;;;;;21.70;8.65;;;;;;;3.46;74.04;102425.81;5103804;28;20036;-51
2023/04/03 02:32:53;;;;;;;24.30;8.10;;;;;;;3.37;74.90;102433.25;5104422;28;20090;-53
2023/04/03 02:35:20;;;;;;;25.40;8.48;;;;;;;3.52;74.94;102437.81;5090665;28;20270;-48
2023/04/03 02:37:47;;;;;;;21.25;8.90;;;;;;;3.58;73.87;102437.53;5094624;28;20090;-53
2023/04/03 02:40:15;;;;;;;21.50;8.90;;;;;;;3.43;74.18;102438.22;5089539;28;20243;-52
2023/04/03 02:42:41;;;;;;;22.33;9.00;;;;;;;3.43;74.21;102443.47;5091627;28;20109;-52
2023/04/03 02:45:08;;;;;;;23.63;9.90;;;;;;;3.55;75.26;102445.56;5091358;28;20048;-51
2023/04/03 02:47:35;;;;;;;22.00;9.05;;;;;;;3.42;74.04;102442.63;5090036;28;20047;-49
2023/04/03 02:50:02;;;;;;;26.75;9.85;;;;;;;3.25;74.58;102440.69;5094479;28;20051;-49
2023/04/03 02:52:31;;;;;;;24.73;9.52;;;;;;;3.32;75.45;102441.31;5089887;28;20036;-53
2023/04/03 02:54:58;;;;;;;30.27;9.85;;;;;;;3.39;75.06;102442.75;5090633;28;20051;-51
2023/04/03 02:57:25;;;;;;;28.05;9.43;;;;;;;3.23;74.62;102442.53;5089584;28;20048;-51
2023/04/03 02:59:51;;;;;;;21.58;9.15;;;;;;;3.37;74.28;102436.72;5091407;28;20036;-49
2023/04/03 03:02:18;;;;;;;25.45;9.88;;;;;;;3.28;74.62;102447.59;5093148;28;20025;-50
2023/04/03 03:04:45;;;;;;;23.85;9.32;;;;;;;3.38;75.03;102443.66;5089851;28;20397;-50
2023/04/03 03:07:11;;;;;;;27.77;9.80;;;;;;;3.45;74.73;102442.47;5094285;28;20371;-49
2023/04/03 03:09:38;;;;;;;28.40;9.32;;;;;;;3.49;74.23;102450.22;5089752;28;20058;-50
2023/04/03 03:12:05;;;;;;;26.75;10.13;;;;;;;3.36;74.15;102449.91;5094192;28;20566;-52
2023/04/03 03:14:31;;;;;;;26.85;10.52;;;;;;;3.30;75.26;102445.75;5087807;28;20044;-50
2023/04/03 03:16:58;;;;;;;22.55;9.40;;;;;;;3.22;75.21;102450.47;5093657;28;20366;-52
2023/04/03 03:19:25;;;;;;;25.33;9.27;;;;;;;3.30;75.58;102451.00;5093979;28;20044;-50
2023/04/03 03:21:52;;;;;;;25.67;9.70;;;;;;;3.13;75.28;102450.84;5082964;28;20139;-53
2023/04/03 03:24:19;;;;;;;21.45;9.48;;;;;;;3.20;75.64;102445.31;5092457;28;20032;-48
2023/04/03 03:26:46;;;;;;;21.33;9.30;;;;;;;3.05;75.55;102444.16;5088075;28;20425;-52
2023/04/03 03:29:14;;;;;;;24.05;10.05;;;;;;;2.97;75.21;102446.25;5093517;28;20474;-49
2023/04/03 03:31:41;;;;;;;28.73;9.98;;;;;;;3.10;75.30;102449.22;5085967;28;20032;-52
2023/04/03 03:34:08;;;;;;;21.23;9.38;;;;;;;3.06;76.20;102452.91;5093904;28;20115;-53
2023/04/03 03:36:35;;;;;;;25.50;9.00;;;;;;;3.07;76.51;102444.97;5088862;28;20567;-51
2023/04/03 03:39:02;;;;;;;24.50;9.60;;;;;;;2.77;76.48;102443.59;5093101;28;20055;-51
2023/04/03 03:41:29;;;;;;;23.48;9.05;;;;;;;2.83;76.73;102436.31;5089153;28;20043;-52
2023/04/03 03:43:56;;;;;;;22.33;9.75;;;;;;;2.83;76.74;102449.44;5093304;28;20040;-52
2023/04/03 03:46:24;;;;;;;22.20;8.15;;;;;;;2.82;75.75;102439.88;5086455;28;20489;-52
2023/04/03 03:48:52;;;;;;;18.75;8.00;;;;;;;2.88;76.42;102431.75;5090447;28;20176;-47
2023/04/03 03:51:18;;;;;;;22.67;8.60;;;;;;;2.91;75.99;102433.41;5091409;28;20040;-49
2023/04/03 03:53:45;;;;;;;24.48;9.35;;;;;;;2.89;76.23;102432.59;5087446;28;20036;-50
2023/04/03 03:56:15;;;;;;;20.15;7.97;;;;;;;2.90;76.27;102431.69;5093061;28;20044;-48
2023/04/03 03:58:43;;;;;;;25.42;8.88;;;;;;;2.79;75.70;102440.00;5087403;28;20067;-52
2023/04/03 04:01:11;;;;;;;21.02;8.75;;;;;;;2.80;75.47;102430.34;5093126;28;20041;-52
2023/04/03 04:03:42;;;;;;;18.27;8.50;;;;;;;2.82;75.95;102437.25;5085083;28;20062;-51
2023/04/03 04:06:12;;;;;;;24.52;8.93;;;;;;;2.85;75.86;102439.72;5093060;28;20293;-51
2023/04/03 04:08:39;;;;;;;24.55;8.48;;;;;;;2.71;75.25;102449.06;5090780;28;20363;-54
2023/04/03 04:11:09;;;;;;;22.10;9.05;;;;;;;2.79;75.21;102445.22;5087580;28;20051;-52
2023/04/03 04:13:37;;;;;;;20.83;7.70;;;;;;;2.74;76.04;102446.34;5093305;28;20036;-53
2023/04/03 04:16:05;;;;;;;19.85;8.13;;;;;;;2.77;75.44;102444.44;5087187;28;20443;-53
2023/04/03 04:18:33;;;;;;;18.35;7.95;;;;;;;2.75;76.10;102448.03;5092436;28;20131;-51
2023/04/03 04:21:00;;;;;;;20.17;7.57;;;;;;;2.64;75.88;102457.19;5084762;28;20048;-53
2023/04/03 04:23:27;;;;;;;24.40;8.77;;;;;;;2.64;75.81;102458.97;5092810;28;20040;-52
2023/04/03 04:25:54;;;;;;;19.63;7.70;;;;;;;2.60;76.15;102463.47;5090236;28;20460;-51
2023/04/03 04:28:21;;;;;;;17.25;7.57;;;;;;;2.56;76.77;102451.38;5091175;28;20107;-53
2023/04/03 04:30:51;;;;;;;20.52;7.95;;;;;;;2.55;75.73;102452.31;5082396;28;20537;-48
2023/04/03 04:33:19;;;;;;;17.45;7.15;;;;;;;2.41;76.66;102458.06;5092902;28;20040;-52
2023/04/03 04:35:48;;;;;;;17.17;7.05;;;;;;;2.40;76.56;102461.63;5091583;28;20074;-53
2023/04/03 04:38:16;;;;;;;24.48;7.43;;;;;;;2.52;77.16;102460.28;5086040;28;20398;-52
2023/04/03 04:40:44;;;;;;;15.30;6.18;;;;;;;2.60;76.29;102462.59;5091944;28;20051;-52
2023/04/03 04:43:14;;;;;;;19.17;6.68;;;;;;;2.41;76.37;102465.94;5088099;28;20040;-51
2023/04/03 04:45:42;;;;;;;21.13;7.47;;;;;;;2.50;76.10;102472.59;5090801;28;20035;-51
2023/04/03 04:48:09;;;;;;;31.70;7.47;;;;;;;2.41;76.78;102471.16;5088053;28;20036;-51
2023/04/03 04:50:36;;;;;;;20.88;6.95;;;;;;;2.47;76.84;102470.06;5092281;28;20056;-52
2023/04/03 04:53:04;;;;;;;17.40;6.57;;;;;;;2.38;76.33;102475.69;5083347;28;20048;-53
2023/04/03 04:55:30;;;;;;;17.33;6.28;;;;;;;2.22;76.99;102486.75;5092099;28;20044;-50
2023/04/03 04:57:57;;;;;;;21.55;7.00;;;;;;;2.33;76.34;102483.72;5088935;28;20097;-52
2023/04/03 05:00:24;;;;;;;24.60;6.85;;;;;;;2.43;76.27;102479.81;5090859;28;20119;-52
2023/04/03 05:02:51;;;;;;;18.05;6.88;;;;;;;2.35;77.11;102488.88;5089419;28;20056;-50
2023/04/03 05:05:19;;;;;;;14.88;6.57;;;;;;;2.31;77.42;102485.56;5089837;28;20401;-50
2023/04/03 05:07:45;;;;;;;18.30;5.93;;;;;;;2.26;77.25;102485.72;5091203;28;20051;-53
2023/04/03 05:10:12;;;;;;;15.27;6.15;;;;;;;2.43;76.82;102486.84;5085211;28;20385;-53
2023/04/03 05:12:40;;;;;;;18.13;6.30;;;;;;;2.28;76.55;102489.13;5091845;28;20452;-54
2023/04/03 05:15:08;;;;;;;19.25;6.10;;;;;;;2.26;77.52;102488.34;5087242;28;20636;-53
2023/04/03 05:17:35;;;;;;;20.50;6.38;;;;;;;2.36;76.98;102499.31;5091672;28;20050;-53
2023/04/03 05:20:05;;;;;;;20.10;6.57;;;;;;;2.44;76.38;102499.88;5087185;28;20619;-52
2023/04/03 05:22:33;;;;;;;25.40;6.50;;;;;;;2.44;76.65;102507.75;5091443;28;20083;-54
2023/04/03 05:25:05;;;;;;;;;;;;;;;2.44;77.18;102496.41;5087884;28;20756;-53
2023/04/03 05:27:32;;;;;;;14.45;6.00;;;;;;;2.45;76.94;102506.81;5088474;28;19920;-51
2023/04/03 05:29:59;;;;;;;21.50;6.32;;;;;;;2.43;77.58;102498.16;5090893;28;20127;-53
2023/04/03 05:32:27;;;;;;;21.45;7.18;;;;;;;2.41;76.88;102502.59;5085769;28;20032;-52
2023/04/03 05:35:07;;;;;;;19.15;6.57;;;;;;;2.37;76.53;102501.03;5092195;28;20131;-51
2023/04/03 05:37:35;;;;;;;19.95;6.38;;;;;;;2.39;77.03;102509.66;5086986;28;20081;-53
2023/04/03 05:40:04;;;;;;;20.35;6.32;;;;;;;2.30;77.08;102496.94;5089975;28;20040;-52
2023/04/03 05:42:31;;;;;;;20.00;6.43;;;;;;;2.32;76.86;102513.44;5083628;28;20063;-52
2023/04/03 05:44:58;;;;;;;18.40;6.65;;;;;;;2.29;77.30;102516.16;5091242;28;20116;-53
2023/04/03 05:47:25;;;;;;;25.55;6.70;;;;;;;2.34;76.43;102521.25;5091443;28;20281;-50
2023/04/03 05:49:52;;;;;;;23.80;6.82;;;;;;;2.34;76.81;102527.31;5087313;28;20487;-50
2023/04/03 05:52:28;;;;;;;16.38;6.43;;;;;;;2.26;77.45;102532.00;5091515;28;20036;-49
2023/04/03 05:54:55;;;;;;;19.00;6.30;;;;;;;2.37;77.30;102537.69;5085509;28;20401;-51
2023/04/03 05:57:25;;;;;;;19.65;6.60;;;;;;;2.46;76.95;102542.59;5091380;28;20127;-52
2023/04/03 05:59:52;;;;;;;21.05;6.65;;;;;;;2.53;77.92;102543.22;5083647;28;20036;-50
2023/04/03 06:02:22;;;;;;;22.20;6.65;;;;;;;2.50;76.72;102545.94;5088357;28;20044;-49
2023/04/03 06:04:51;;;;;;;22.27;6.00;;;;;;;2.59;76.39;102552.63;5086948;28;20071;-51
2023/04/03 06:07:22;;;;;;;17.15;6.03;;;;;;;2.38;77.08;102554.25;5091440;28;20044;-49
2023/04/03 06:09:51;;;;;;;23.02;6.22;;;;;;;2.44;76.90;102548.81;5088243;28;20485;-52
2023/04/03 06:12:18;;;;;;;24.10;6.97;;;;;;;2.51;76.88;102552.91;5095520;28;20072;-55
2023/04/03 06:14:45;;;;;;;25.35;6.35;;;;;;;2.42;76.72;102551.47;5087513;28;20044;-51
2023/04/03 06:17:15;;;;;;;15.60;5.78;;;;;;;2.45;76.84;102548.72;5094658;28;20044;-49
2023/04/03 06:19:42;;;;;;;19.20;6.13;;;;;;;2.51;75.80;102547.66;5095055;28;20061;-52
2023/04/03 06:22:09;;;;;;;23.60;6.25;;;;;;;2.58;76.34;102550.88;5090381;28;20051;-51
2023/04/03 06:24:35;;;;;;;18.42;7.15;;;;;;;2.67;75.74;102547.91;5095267;28;20379;-51
2023/04/03 06:27:02;;;;;;;23.40;6.93;;;;;;;2.58;76.22;102554.34;5072331;28;20435;-53
2023/04/03 06:29:29;;;;;;;18.52;6.57;;;;;;;2.61;75.48;102559.50;5095299;28;20040;-51
2023/04/03 06:31:56;;;;;;;20.05;6.65;;;;;;;2.75;76.09;102558.97;5079359;28;20047;-52
2023/04/03 06:34:22;;;;;;;19.35;7.00;;;;;;;2.85;76.13;102552.44;5093812;28;20039;-51
2023/04/03 06:36:50;;;;;;;21.13;6.07;;;;;;;2.87;76.08;102558.50;5088902;28;20101;-52
2023/04/03 06:39:22;;;;;;;21.48;5.78;;;;;;;2.88;74.97;102548.88;5093086;28;20040;-53
2023/04/03 06:41:50;;;;;;;16.33;6.10;;;;;;;2.80;76.04;102556.16;5090398;28;20385;-53
2023/04/03 06:44:18;;;;;;;21.23;5.97;;;;;;;2.87;76.39;102550.66;5094381;28;20111;-51
2023/04/03 06:46:46;;;;;;;24.08;6.93;;;;;;;2.87;75.41;102549.78;5085035;28;20071;-52
2023/04/03 06:49:13;;;;;;;17.88;5.72;;;;;;;2.86;74.92;102550.69;5094987;28;20070;-49
2023/04/03 06:51:40;;;;;;;15.13;5.60;;;;;;;2.99;75.56;102544.06;5094722;28;20097;-52
2023/04/03 06:54:08;;;;;;;16.00;5.47;;;;;;;2.88;75.48;102547.09;5089722;28;20067;-51
2023/04/03 06:56:34;;;;;;;15.48;5.18;;;;;;;2.92;74.64;102550.44;5093932;28;20044;-52
2023/04/03 06:59:01;;;;;;;16.63;4.88;;;;;;;2.87;74.10;102555.91;5089888;28;20071;-53
2023/04/03 07:01:29;;;;;;;13.85;4.40;;;;;;;2.97;74.48;102561.63;5093427;28;20093;-53
2023/04/03 07:03:56;;;;;;;15.77;5.15;;;;;;;2.82;74.90;102549.97;5086158;28;20514;-51
2023/04/03 07:06:26;;;;;;;19.80;5.40;;;;;;;2.67;74.08;102561.91;5082476;28;20402;-52
2023/04/03 07:08:53;;;;;;;15.07;5.15;;;;;;;2.86;74.82;102563.81;5090213;28;20056;-51
2023/04/03 07:11:21;;;;;;;18.25;4.90;;;;;;;2.91;74.61;102564.50;5092666;28;20489;-51
2023/04/03 07:13:48;;;;;;;14.77;5.00;;;;;;;3.04;73.12;102568.34;5093048;28;20067;-53
2023/04/03 07:16:15;;;;;;;16.83;5.45;;;;;;;3.12;73.47;102569.78;5091331;28;20089;-52
2023/04/03 07:18:42;;;;;;;17.55;4.85;;;;;;;3.12;72.84;102573.25;5093620;28;20036;-51
2023/04/03 07:21:09;;;;;;;15.23;5.20;;;;;;;3.17;73.03;102573.09;5086457;28;20052;-51
2023/04/03 07:23:35;;;;;;;13.60;5.28;;;;;;;3.02;72.52;102578.03;5094094;28;20040;-51
2023/04/03 07:26:02;;;;;;;15.48;5.18;;;;;;;3.03;71.64;102579.72;5089315;28;20074;-51
2023/04/03 07:28:30;;;;;;;16.40;5.15;;;;;;;3.18;71.93;102577.41;5092505;28;20048;-53
2023/04/03 07:31:03;;;;;;;15.13;4.03;;;;;;;3.12;71.63;102581.13;5089101;28;20043;-54
2023/04/03 07:33:30;;;;;;;15.30;4.57;;;;;;;3.20;70.72;102580.81;5093918;28;20040;-53
2023/04/03 07:35:58;;;;;;;12.93;4.30;;;;;;;3.20;71.44;102580.81;5085800;28;20043;-52
2023/04/03 07:38:25;;;;;;;13.63;4.28;;;;;;;3.38;70.49;102582.69;5093524;28;20552;-52
2023/04/03 07:40:52;;;;;;;13.63;3.65;;;;;;;3.32;69.26;102588.22;5086605;28;20051;-53
2023/04/03 07:43:21;;;;;;;14.07;3.58;;;;;;;3.26;69.45;102591.94;5093710;28;20044;-52
2023/04/03 07:45:50;;;;;;;15.10;3.70;;;;;;;3.48;69.54;102600.72;5090820;28;20460;-53
2023/04/03 07:48:19;;;;;;;11.75;3.30;;;;;;;3.41;67.56;102592.22;5091136;28;20040;-54
2023/04/03 07:50:46;;;;;;;13.60;3.78;;;;;;;3.47;68.73;102591.97;5092757;28;20047;-52
2023/04/03 07:53:13;;;;;;;14.75;4.35;;;;;;;3.56;68.52;102591.59;5086969;28;20041;-52
2023/04/03 07:55:43;;;;;;;16.67;3.85;;;;;;;3.65;66.88;102595.63;5093451;28;20408;-51
2023/04/03 07:58:12;;;;;;;17.17;3.65;;;;;;;3.70;66.09;102591.03;5088060;28;20040;-53
2023/04/03 08:00:39;;;;;;;12.50;3.63;;;;;;;3.86;65.14;102593.88;5070343;28;20044;-52
2023/04/03 08:03:07;;;;;;;11.85;3.20;;;;;;;3.72;64.79;102596.22;5065601;28;20037;-51
2023/04/03 08:05:44;;;;;;;8.23;3.17;;;;;;;3.63;65.14;102605.31;5072340;28;20493;-54
2023/04/03 08:08:14;;;;;;;8.88;3.03;;;;;;;3.70;65.93;102592.81;5061658;28;20052;-54
2023/04/03 08:10:41;;;;;;;14.93;3.25;;;;;;;3.94;65.80;102590.91;5067430;28;20124;-54
2023/04/03 08:13:09;;;;;;;9.90;3.13;;;;;;;4.13;64.83;102593.59;5071942;28;20114;-53
2023/04/03 08:15:36;;;;;;;15.35;3.42;;;;;;;4.22;63.11;102591.44;5067480;28;20563;-51
2023/04/03 08:18:04;;;;;;;8.75;3.08;;;;;;;4.36;61.69;102597.84;5062683;28;20055;-49
2023/04/03 08:20:30;;;;;;;13.05;3.10;;;;;;;4.56;61.39;102596.94;5064580;28;20067;-50
2023/04/03 08:22:57;;;;;;;14.00;2.92;;;;;;;4.51;59.97;102601.53;5069990;28;20252;-49
2023/04/03 08:25:24;;;;;;;13.05;2.95;;;;;;;4.45;60.94;102599.22;5055299;28;20068;-60
2023/04/03 08:27:51;;;;;;;7.85;2.75;;;;;;;4.69;59.56;102603.34;5065220;28;20040;-60
2023/04/03 08:30:19;;;;;;;19.63;2.90;;;;;;;4.78;56.63;102602.94;5010923;28;23489;-61
2023/04/03 08:32:46;;;;;;;8.65;2.60;;;;;;;4.84;54.21;102612.31;5043464;28;20482;-52
2023/04/03 08:35:12;;;;;;;9.02;2.50;;;;;;;4.73;54.54;102601.41;5073973;28;20052;-50
2023/04/03 08:37:40;;;;;;;10.45;2.53;;;;;;;4.75;53.61;102597.81;5053238;28;20060;-51
2023/04/03 08:40:13;;;;;;;9.65;2.50;;;;;;;4.90;54.42;102600.66;5037866;28;20052;-49
2023/04/03 08:43:20;;;;;;;8.32;2.40;;;;;;;5.49;52.97;102598.69;5032514;28;20120;-52
2023/04/03 08:45:55;;;;;;;9.63;3.22;;;;;;;5.81;53.78;102598.91;5042822;28;20123;-49
2023/04/03 08:48:29;;;;;;;7.20;2.55;;;;;;;5.72;52.71;102603.69;5042177;28;20045;-54
2023/04/03 08:51:00;;;;;;;8.32;2.55;;;;;;;6.00;50.69;102598.81;5047827;28;20487;-51
2023/04/03 08:53:32;;;;;;;7.82;2.78;;;;;;;5.87;49.79;102599.41;5028715;28;20044;-52
2023/04/03 08:56:04;;;;;;;9.75;2.20;;;;;;;6.01;50.58;102609.28;5050503;28;20394;-53
2023/04/03 08:58:56;;;;;;;13.65;5.05;;;;;;;6.29;48.50;102608.72;5044629;28;20048;-48
2023/04/03 09:01:29;;;;;;;13.00;2.70;;;;;;;6.15;48.56;102612.06;5033549;28;20133;-60
2023/04/03 09:03:56;;;;;;;10.20;2.50;;;;;;;6.17;48.11;102612.00;5047882;28;20037;-60
2023/04/03 09:06:32;;;;;;;9.20;2.25;;;;;;;6.27;47.63;102607.09;5033049;28;20045;-60
2023/04/03 09:09:40;;;;;;;6.45;2.00;;;;;;;6.22;46.82;102617.00;5046489;28;20125;-60
2023/04/03 09:12:31;;;;;;;7.72;2.10;;;;;;;6.55;45.24;102617.03;5046645;28;20517;-60
2023/04/03 09:15:20;;;;;;;10.20;2.22;;;;;;;6.78;45.08;102625.50;5029498;28;20127;-60
2023/04/03 09:18:28;;;;;;;8.68;2.17;;;;;;;6.92;45.51;102621.16;5049522;28;20044;-60
2023/04/03 09:26:26;;;;;;;8.90;2.30;;;;;;;8.24;40.69;102614.47;5091272;27;20457;-60
2023/04/03 09:28:58;;;;;;;9.23;2.50;;;;;;;9.29;39.68;102616.75;5084364;28;20047;-60
2023/04/03 09:31:29;;;;;;;10.07;2.40;;;;;;;10.60;36.89;102615.88;5090581;28;20052;-61
2023/04/03 09:34:02;;;;;;;9.07;2.70;;;;;;;12.15;34.70;102616.91;5079270;28;20059;-61
2023/04/03 09:36:48;;;;;;;8.63;2.50;;;;;;;12.94;31.96;102618.72;5095320;28;20048;-61
2023/04/03 09:39:19;;;;;;;5.38;2.05;;;;;;;12.99;31.62;102619.19;5080726;28;20036;-61
2023/04/03 09:42:04;;;;;;;10.10;2.50;;;;;;;13.90;30.38;102623.22;5093213;28;20045;-61
2023/04/03 09:44:37;;;;;;;10.80;2.30;;;;;;;13.17;31.18;102616.81;5082759;28;20032;-61
2023/04/03 09:47:25;;;;;;;12.65;2.70;;;;;;;11.93;32.98;102624.81;5089635;28;20056;-61
2023/04/03 09:52:52;;;;;;;9.55;2.65;;;;;;;13.53;29.90;102612.13;5084520;27;20935;-61
2023/04/03 09:55:26;;;;;;;7.07;2.50;;;;;;;14.35;28.94;102614.94;5084473;28;20040;-61
2023/04/03 09:57:55;;;;;;;10.32;2.45;;;;;;;15.44;29.28;102616.91;5080937;28;20075;-61
2023/04/03 10:00:26;;;;;;;8.75;2.50;;;;;;;14.82;28.19;102609.06;5098413;28;20028;-61
2023/04/03 10:02:55;;;;;;;8.65;2.28;;;;;;;15.96;26.81;102614.78;5078344;28;20081;-61
2023/04/03 10:08:19;;;;;;;8.77;2.50;;;;;;;15.07;27.79;102601.53;5075467;27;20386;-52
2023/04/03 10:11:04;;;;;;;6.00;2.33;;;;;;;14.91;29.40;102594.03;5044764;28;20117;-52
2023/04/03 10:13:32;;;;;;;9.55;2.40;;;;;;;14.97;28.01;102597.03;5058455;28;20045;-53
2023/04/03 10:16:05;;;;;;;8.50;2.55;;;;;;;13.44;30.19;102593.28;5041478;28;20045;-51
2023/04/03 10:18:44;;;;;;;7.63;2.38;;;;;;;14.08;30.51;102598.59;5040808;28;20502;-53
2023/04/03 10:21:23;;;;;;;10.77;2.38;;;;;;;14.40;30.39;102603.81;5025325;28;20502;-49
2023/04/03 10:24:08;;;;;;;7.05;2.30;;;;;;;12.77;31.02;102598.75;5034364;28;20053;-52
2023/04/03 10:26:58;;;;;;;9.93;2.50;;;;;;;12.55;32.45;102597.81;5034647;28;20686;-53
2023/04/03 10:29:38;;;;;;;8.88;2.85;;;;;;;12.72;32.27;102587.63;5047898;28;21736;-51
2023/04/03 10:32:44;;;;;;;12.27;2.67;;;;;;;13.27;32.16;102590.28;5040475;28;20056;-50
2023/04/03 10:35:33;;;;;;;10.43;2.45;;;;;;;13.52;32.00;102581.13;5043024;28;20060;-50
2023/04/03 10:38:12;;;;;;;7.13;2.47;;;;;;;13.34;31.98;102581.69;5035187;28;20049;-52
2023/04/03 10:41:04;;;;;;;8.85;2.40;;;;;;;11.94;33.15;102579.50;5039703;28;20041;-53
2023/04/03 10:43:45;;;;;;;5.00;1.90;;;;;;;10.63;35.06;102573.22;5036804;28;20045;-53
2023/04/03 10:46:22;;;;;;;8.57;2.72;;;;;;;11.12;35.40;102579.44;5031176;28;20102;-51
2023/04/03 10:49:15;;;;;;;8.23;2.50;;;;;;;11.82;35.96;102565.28;5037140;28;20102;-52
2023/04/03 10:51:46;;;;;;;6.40;2.17;;;;;;;11.70;35.09;102577.72;5044100;28;20445;-50
2023/04/03 10:57:07;;;;;;;8.57;2.33;;;;;;;12.70;32.97;102569.13;5032194;27;20429;-49
2023/04/03 10:59:50;;;;;;;7.20;2.15;;;;;;;12.43;34.05;102558.84;5019235;28;20048;-60
2023/04/03 11:05:09;;;;;;;11.32;2.20;;;;;;;13.03;32.46;102557.53;5083446;27;20375;-60
2023/04/03 11:07:43;;;;;;;8.77;1.90;;;;;;;12.95;32.68;102557.31;5064376;28;20129;-60
2023/04/03 11:10:16;;;;;;;5.40;1.70;;;;;;;12.84;29.90;102544.88;5057012;28;20128;-60
2023/04/03 11:12:49;;;;;;;8.05;1.92;;;;;;;13.27;31.60;102550.31;5065137;28;20080;-62
2023/04/03 11:15:19;;;;;;;10.57;1.73;;;;;;;13.14;29.14;102553.97;5064126;28;20109;-60
2023/04/03 11:17:54;;;;;;;3.75;1.40;;;;;;;13.53;28.24;102556.97;5050563;28;20051;-60
2023/04/03 11:20:32;;;;;;;6.22;1.75;;;;;;;13.39;28.16;102544.81;5062111;28;20131;-61
2023/04/03 11:23:03;;;;;;;4.07;1.60;;;;;;;13.68;28.06;102533.53;5060081;28;20044;-61
2023/04/03 11:25:34;;;;;;;6.13;1.70;;;;;;;14.06;28.61;102541.84;5062713;28;20044;-61
2023/04/03 11:28:04;;;;;;;9.10;1.60;;;;;;;14.22;28.01;102536.88;5066019;28;20462;-61
2023/04/03 11:31:00;;;;;;;10.10;1.67;;;;;;;14.32;26.47;102532.44;5067153;28;20052;-61
2023/04/03 11:33:52;;;;;;;6.63;1.50;;;;;;;14.07;27.06;102538.22;5066188;28;20037;-61
2023/04/03 11:36:33;;;;;;;3.13;1.30;;;;;;;14.18;25.74;102541.63;5051380;28;20033;-60
2023/04/03 11:39:10;;;;;;;5.70;1.70;;;;;;;14.47;26.39;102542.72;5044703;28;20453;-60
2023/04/03 11:41:36;;;;;;;6.53;1.60;;;;;;;13.11;26.70;102532.91;5058173;28;20048;-62
2023/04/03 11:44:25;;;;;;;4.90;1.85;;;;;;;12.62;25.47;102524.44;5062928;28;20497;-60
2023/04/03 11:46:58;;;;;;;4.97;1.77;;;;;;;13.24;26.52;102524.75;5047634;28;20114;-60
2023/04/03 11:49:55;;;;;;;3.78;1.48;;;;;;;13.76;25.37;102512.38;5065116;28;20036;-60
2023/04/03 11:58:13;;;;;;;5.65;1.52;;;;;;;14.21;25.54;102514.69;5084914;27;20378;-61
2023/04/03 12:00:51;;;;;;;5.78;1.50;;;;;;;15.06;25.78;102511.63;5099639;28;20036;-60
2023/04/03 12:11:28;;;;;;;5.43;1.55;;;;;;;14.92;25.26;102505.72;5083365;27;20379;-60
2023/04/03 12:14:00;;;;;;;3.83;1.40;;;;;;;15.80;23.44;102502.13;5064306;28;20044;-61
2023/04/03 12:16:34;;;;;;;3.90;1.50;;;;;;;16.05;22.66;102490.78;5061329;28;20048;-61
2023/04/03 12:19:04;;;;;;;5.80;1.55;;;;;;;16.39;23.89;102500.91;5077217;28;20119;-61